sensor_id;sensor_type;location;lat;lon;timestamp;temperature;humidity
54960;DHT22;40860;51.710;8.736;2022-10-19T00:01:07;7.90;99.90
54960;DHT22;40860;51.710;8.736;2022-10-19T00:05:10;7.90;99.90
54960;DHT22;40860;51.710;8.736;2022-10-19T00:09:17;7.80;99.90
54960;DHT22;40860;51.710;8.736;2022-10-19T00:13:23;7.80;99.90
54960;DHT22;40860;51.710;8.736;2022-10-19T00:17:26;7.80;99.90
54960;DHT22;40860;51.710;8.736;2022-10-19T00:21:29;7.70;99.90
54960;DHT22;40860;51.710;8.736;2022-10-19T00:25:33;7.70;99.90
54960;DHT22;40860;51.710;8.736;2022-10-19T00:29:37;7.70;99.90
54960;DHT22;40860;51.710;8.736;2022-10-19T00:33:40;7.70;99.90
54960;DHT22;40860;51.710;8.736;2022-10-19T00:37:43;7.60;99.90
54960;DHT22;40860;51.710;8.736;2022-10-19T00:41:48;7.60;99.90
54960;DHT22;40860;51.710;8.736;2022-10-19T00:45:51;7.60;99.90
54960;DHT22;40860;51.710;8.736;2022-10-19T00:49:56;7.60;99.90
54960;DHT22;40860;51.710;8.736;2022-10-19T00:54:01;7.60;99.90
54960;DHT22;40860;51.710;8.736;2022-10-19T00:58:06;7.60;99.90
54960;DHT22;40860;51.710;8.736;2022-10-19T01:02:12;7.60;99.90
54960;DHT22;40860;51.710;8.736;2022-10-19T01:06:17;7.60;99.90
54960;DHT22;40860;51.710;8.736;2022-10-19T01:10:23;7.60;99.90
54960;DHT22;40860;51.710;8.736;2022-10-19T01:14:39;7.60;99.90
54960;DHT22;40860;51.710;8.736;2022-10-19T01:18:53;7.70;99.90
54960;DHT22;40860;51.710;8.736;2022-10-19T01:27:46;7.80;99.90
54960;DHT22;40860;51.710;8.736;2022-10-19T01:32:00;7.90;99.90
54960;DHT22;40860;51.710;8.736;2022-10-19T01:36:13;7.90;99.90
54960;DHT22;40860;51.710;8.736;2022-10-19T01:40:25;8.10;99.90
54960;DHT22;40860;51.710;8.736;2022-10-19T01:44:36;8.20;99.90
54960;DHT22;40860;51.710;8.736;2022-10-19T01:48:48;8.20;99.90
54960;DHT22;40860;51.710;8.736;2022-10-19T01:52:54;8.20;99.90
54960;DHT22;40860;51.710;8.736;2022-10-19T01:56:59;8.10;99.90
54960;DHT22;40860;51.710;8.736;2022-10-19T02:01:06;8.10;99.90
54960;DHT22;40860;51.710;8.736;2022-10-19T02:05:14;8.10;99.90
54960;DHT22;40860;51.710;8.736;2022-10-19T02:09:18;8.00;99.90
54960;DHT22;40860;51.710;8.736;2022-10-19T02:13:22;8.00;99.90
54960;DHT22;40860;51.710;8.736;2022-10-19T02:17:29;8.00;99.90
54960;DHT22;40860;51.710;8.736;2022-10-19T02:21:34;7.90;99.90
54960;DHT22;40860;51.710;8.736;2022-10-19T02:25:37;7.90;99.90
54960;DHT22;40860;51.710;8.736;2022-10-19T02:29:40;7.80;99.90
54960;DHT22;40860;51.710;8.736;2022-10-19T02:33:43;7.80;99.90
54960;DHT22;40860;51.710;8.736;2022-10-19T02:37:47;7.80;99.90
54960;DHT22;40860;51.710;8.736;2022-10-19T02:41:53;7.70;99.90
54960;DHT22;40860;51.710;8.736;2022-10-19T02:46:01;7.70;99.90
54960;DHT22;40860;51.710;8.736;2022-10-19T02:50:06;7.70;99.90
54960;DHT22;40860;51.710;8.736;2022-10-19T02:54:11;7.80;99.90
54960;DHT22;40860;51.710;8.736;2022-10-19T02:58:14;7.80;99.90
54960;DHT22;40860;51.710;8.736;2022-10-19T03:02:18;7.80;99.90
54960;DHT22;40860;51.710;8.736;2022-10-19T03:06:21;7.80;99.90
54960;DHT22;40860;51.710;8.736;2022-10-19T03:10:25;7.80;99.90
54960;DHT22;40860;51.710;8.736;2022-10-19T03:14:28;7.70;99.90
54960;DHT22;40860;51.710;8.736;2022-10-19T03:18:30;7.70;99.90
54960;DHT22;40860;51.710;8.736;2022-10-19T03:22:33;7.60;99.90
54960;DHT22;40860;51.710;8.736;2022-10-19T03:26:37;7.50;99.90
54960;DHT22;40860;51.710;8.736;2022-10-19T03:30:40;7.50;99.90
54960;DHT22;40860;51.710;8.736;2022-10-19T03:34:43;7.40;99.90
54960;DHT22;40860;51.710;8.736;2022-10-19T03:38:46;7.40;99.90
54960;DHT22;40860;51.710;8.736;2022-10-19T03:42:52;7.30;99.90
54960;DHT22;40860;51.710;8.736;2022-10-19T03:46:55;7.30;99.90
54960;DHT22;40860;51.710;8.736;2022-10-19T03:50:58;7.40;99.90
54960;DHT22;40860;51.710;8.736;2022-10-19T03:55:01;7.30;99.90
54960;DHT22;40860;51.710;8.736;2022-10-19T03:59:06;7.30;99.90
54960;DHT22;40860;51.710;8.736;2022-10-19T04:03:09;7.20;99.90
54960;DHT22;40860;51.710;8.736;2022-10-19T04:07:12;7.20;99.90
54960;DHT22;40860;51.710;8.736;2022-10-19T04:11:16;7.10;99.90
54960;DHT22;40860;51.710;8.736;2022-10-19T04:15:20;7.10;99.90
54960;DHT22;40860;51.710;8.736;2022-10-19T04:19:23;7.10;99.90
54960;DHT22;40860;51.710;8.736;2022-10-19T04:23:28;7.10;99.90
54960;DHT22;40860;51.710;8.736;2022-10-19T04:27:30;7.10;99.90
54960;DHT22;40860;51.710;8.736;2022-10-19T04:31:36;7.10;99.90
54960;DHT22;40860;51.710;8.736;2022-10-19T04:35:38;7.20;99.90
54960;DHT22;40860;51.710;8.736;2022-10-19T04:39:41;7.30;99.90
54960;DHT22;40860;51.710;8.736;2022-10-19T04:43:46;7.30;99.90
54960;DHT22;40860;51.710;8.736;2022-10-19T04:47:50;7.40;99.90
54960;DHT22;40860;51.710;8.736;2022-10-19T04:51:54;7.40;99.90
54960;DHT22;40860;51.710;8.736;2022-10-19T04:55:57;7.50;99.90
54960;DHT22;40860;51.710;8.736;2022-10-19T05:00:01;7.60;99.90
54960;DHT22;40860;51.710;8.736;2022-10-19T05:04:05;7.60;99.90
54960;DHT22;40860;51.710;8.736;2022-10-19T05:08:09;7.70;99.90
54960;DHT22;40860;51.710;8.736;2022-10-19T05:12:12;7.70;99.90
54960;DHT22;40860;51.710;8.736;2022-10-19T05:16:17;7.70;99.90
54960;DHT22;40860;51.710;8.736;2022-10-19T05:20:21;7.80;99.90
54960;DHT22;40860;51.710;8.736;2022-10-19T05:24:24;7.80;99.90
54960;DHT22;40860;51.710;8.736;2022-10-19T05:28:27;7.80;99.90
54960;DHT22;40860;51.710;8.736;2022-10-19T05:32:30;7.90;99.90
54960;DHT22;40860;51.710;8.736;2022-10-19T05:36:36;7.90;99.90
54960;DHT22;40860;51.710;8.736;2022-10-19T05:40:43;8.00;99.90
54960;DHT22;40860;51.710;8.736;2022-10-19T05:44:52;8.00;99.90
54960;DHT22;40860;51.710;8.736;2022-10-19T05:48:57;8.00;99.90
54960;DHT22;40860;51.710;8.736;2022-10-19T05:53:03;8.10;99.90
54960;DHT22;40860;51.710;8.736;2022-10-19T05:57:06;8.10;99.90
54960;DHT22;40860;51.710;8.736;2022-10-19T06:01:09;8.20;99.90
54960;DHT22;40860;51.710;8.736;2022-10-19T06:05:13;8.20;99.90
54960;DHT22;40860;51.710;8.736;2022-10-19T06:09:17;8.30;99.90
54960;DHT22;40860;51.710;8.736;2022-10-19T06:13:20;8.40;99.90
54960;DHT22;40860;51.710;8.736;2022-10-19T06:17:22;8.50;99.90
54960;DHT22;40860;51.710;8.736;2022-10-19T06:21:27;8.60;99.90
54960;DHT22;40860;51.710;8.736;2022-10-19T06:25:32;8.60;99.90
54960;DHT22;40860;51.710;8.736;2022-10-19T06:29:35;8.70;99.90
54960;DHT22;40860;51.710;8.736;2022-10-19T06:33:39;8.70;99.90
54960;DHT22;40860;51.710;8.736;2022-10-19T06:37:42;8.80;99.90
54960;DHT22;40860;51.710;8.736;2022-10-19T06:41:46;8.90;99.90
54960;DHT22;40860;51.710;8.736;2022-10-19T06:45:52;9.00;99.90
54960;DHT22;40860;51.710;8.736;2022-10-19T06:49:55;9.10;99.90
54960;DHT22;40860;51.710;8.736;2022-10-19T06:53:58;9.10;99.90
54960;DHT22;40860;51.710;8.736;2022-10-19T06:58:02;9.20;99.90
54960;DHT22;40860;51.710;8.736;2022-10-19T07:02:05;9.20;99.90
54960;DHT22;40860;51.710;8.736;2022-10-19T07:06:10;9.30;99.90
54960;DHT22;40860;51.710;8.736;2022-10-19T07:10:13;9.40;99.90
54960;DHT22;40860;51.710;8.736;2022-10-19T07:14:18;9.40;99.90
54960;DHT22;40860;51.710;8.736;2022-10-19T07:18:20;9.50;99.90
54960;DHT22;40860;51.710;8.736;2022-10-19T07:22:23;9.60;99.90
54960;DHT22;40860;51.710;8.736;2022-10-19T07:26:29;9.70;99.90
54960;DHT22;40860;51.710;8.736;2022-10-19T07:30:36;9.70;99.90
54960;DHT22;40860;51.710;8.736;2022-10-19T07:34:39;9.90;99.90
54960;DHT22;40860;51.710;8.736;2022-10-19T07:38:42;10.00;99.90
54960;DHT22;40860;51.710;8.736;2022-10-19T07:42:45;10.10;99.90
54960;DHT22;40860;51.710;8.736;2022-10-19T07:46:49;10.20;99.90
54960;DHT22;40860;51.710;8.736;2022-10-19T07:50:52;10.40;99.90
54960;DHT22;40860;51.710;8.736;2022-10-19T07:54:55;10.70;99.90
54960;DHT22;40860;51.710;8.736;2022-10-19T07:58:59;10.90;99.90
54960;DHT22;40860;51.710;8.736;2022-10-19T08:03:03;11.10;99.90
54960;DHT22;40860;51.710;8.736;2022-10-19T08:07:26;11.30;99.90
54960;DHT22;40860;51.710;8.736;2022-10-19T08:11:30;11.50;99.90
54960;DHT22;40860;51.710;8.736;2022-10-19T08:15:33;11.60;99.90
54960;DHT22;40860;51.710;8.736;2022-10-19T08:19:38;11.80;99.90
54960;DHT22;40860;51.710;8.736;2022-10-19T08:23:44;11.80;99.90
54960;DHT22;40860;51.710;8.736;2022-10-19T08:27:47;11.90;99.90
54960;DHT22;40860;51.710;8.736;2022-10-19T08:31:49;12.10;99.00
54960;DHT22;40860;51.710;8.736;2022-10-19T08:35:54;12.20;97.70
54960;DHT22;40860;51.710;8.736;2022-10-19T08:39:57;12.30;96.80
54960;DHT22;40860;51.710;8.736;2022-10-19T08:44:25;12.40;96.40
54960;DHT22;40860;51.710;8.736;2022-10-19T08:48:32;12.50;96.10
54960;DHT22;40860;51.710;8.736;2022-10-19T08:52:38;12.60;95.20
54960;DHT22;40860;51.710;8.736;2022-10-19T08:56:46;12.80;94.60
54960;DHT22;40860;51.710;8.736;2022-10-19T09:00:58;12.80;93.60
54960;DHT22;40860;51.710;8.736;2022-10-19T09:05:06;12.80;92.20
54960;DHT22;40860;51.710;8.736;2022-10-19T09:09:13;12.80;92.20
54960;DHT22;40860;51.710;8.736;2022-10-19T09:13:21;12.80;91.70
54960;DHT22;40860;51.710;8.736;2022-10-19T09:17:47;12.90;92.10
54960;DHT22;40860;51.710;8.736;2022-10-19T09:21:54;12.90;91.50
54960;DHT22;40860;51.710;8.736;2022-10-19T09:25:59;13.00;91.70
54960;DHT22;40860;51.710;8.736;2022-10-19T09:30:05;13.00;91.70
54960;DHT22;40860;51.710;8.736;2022-10-19T09:34:14;13.10;92.00
54960;DHT22;40860;51.710;8.736;2022-10-19T09:38:19;13.20;91.90
54960;DHT22;40860;51.710;8.736;2022-10-19T09:42:27;13.20;91.30
54960;DHT22;40860;51.710;8.736;2022-10-19T09:46:42;13.10;90.20
54960;DHT22;40860;51.710;8.736;2022-10-19T09:50:54;13.00;90.30
54960;DHT22;40860;51.710;8.736;2022-10-19T09:55:00;13.00;90.90
54960;DHT22;40860;51.710;8.736;2022-10-19T09:59:19;13.10;90.30
54960;DHT22;40860;51.710;8.736;2022-10-19T10:03:27;13.10;90.40
54960;DHT22;40860;51.710;8.736;2022-10-19T10:07:34;13.20;90.40
54960;DHT22;40860;51.710;8.736;2022-10-19T10:11:38;13.20;90.00
54960;DHT22;40860;51.710;8.736;2022-10-19T10:15:46;13.20;89.60
54960;DHT22;40860;51.710;8.736;2022-10-19T10:20:00;13.20;89.60
54960;DHT22;40860;51.710;8.736;2022-10-19T10:24:09;13.30;90.30
54960;DHT22;40860;51.710;8.736;2022-10-19T10:28:20;13.40;88.60
54960;DHT22;40860;51.710;8.736;2022-10-19T10:32:25;13.40;88.00
54960;DHT22;40860;51.710;8.736;2022-10-19T10:36:29;13.50;87.60
54960;DHT22;40860;51.710;8.736;2022-10-19T10:40:33;13.50;88.00
54960;DHT22;40860;51.710;8.736;2022-10-19T10:44:36;13.50;86.00
54960;DHT22;40860;51.710;8.736;2022-10-19T10:48:43;13.40;85.50
54960;DHT22;40860;51.710;8.736;2022-10-19T10:52:58;13.50;86.80
54960;DHT22;40860;51.710;8.736;2022-10-19T10:57:12;13.60;86.50
54960;DHT22;40860;51.710;8.736;2022-10-19T11:01:19;13.50;85.30
54960;DHT22;40860;51.710;8.736;2022-10-19T11:05:28;13.30;85.30
54960;DHT22;40860;51.710;8.736;2022-10-19T11:09:39;13.30;85.00
54960;DHT22;40860;51.710;8.736;2022-10-19T11:13:49;13.20;85.40
54960;DHT22;40860;51.710;8.736;2022-10-19T11:17:58;13.20;85.00
54960;DHT22;40860;51.710;8.736;2022-10-19T11:22:15;13.20;84.70
54960;DHT22;40860;51.710;8.736;2022-10-19T11:26:34;13.30;85.10
54960;DHT22;40860;51.710;8.736;2022-10-19T11:30:54;13.20;85.70
54960;DHT22;40860;51.710;8.736;2022-10-19T11:35:11;13.30;86.30
54960;DHT22;40860;51.710;8.736;2022-10-19T11:39:30;13.40;86.00
54960;DHT22;40860;51.710;8.736;2022-10-19T11:43:41;13.40;84.90
54960;DHT22;40860;51.710;8.736;2022-10-19T11:47:54;13.50;86.30
54960;DHT22;40860;51.710;8.736;2022-10-19T11:52:09;13.60;85.50
54960;DHT22;40860;51.710;8.736;2022-10-19T11:56:19;13.60;86.20
54960;DHT22;40860;51.710;8.736;2022-10-19T12:00:43;13.70;86.50
54960;DHT22;40860;51.710;8.736;2022-10-19T12:04:52;13.70;85.50
54960;DHT22;40860;51.710;8.736;2022-10-19T12:09:04;13.70;86.80
54960;DHT22;40860;51.710;8.736;2022-10-19T12:13:16;13.70;85.70
54960;DHT22;40860;51.710;8.736;2022-10-19T12:17:23;13.80;86.20
54960;DHT22;40860;51.710;8.736;2022-10-19T12:21:32;13.80;84.00
54960;DHT22;40860;51.710;8.736;2022-10-19T12:25:37;13.70;84.10
54960;DHT22;40860;51.710;8.736;2022-10-19T12:29:45;13.80;85.20
54960;DHT22;40860;51.710;8.736;2022-10-19T12:33:52;14.00;84.90
54960;DHT22;40860;51.710;8.736;2022-10-19T12:38:03;13.90;81.60
54960;DHT22;40860;51.710;8.736;2022-10-19T12:42:16;13.80;82.60
54960;DHT22;40860;51.710;8.736;2022-10-19T12:46:30;13.90;82.90
54960;DHT22;40860;51.710;8.736;2022-10-19T12:50:58;13.90;82.80
54960;DHT22;40860;51.710;8.736;2022-10-19T12:55:25;13.90;82.10
54960;DHT22;40860;51.710;8.736;2022-10-19T12:59:31;13.80;82.60
54960;DHT22;40860;51.710;8.736;2022-10-19T13:03:37;13.70;83.20
54960;DHT22;40860;51.710;8.736;2022-10-19T13:07:41;13.80;82.60
54960;DHT22;40860;51.710;8.736;2022-10-19T13:16:55;13.80;82.50
54960;DHT22;40860;51.710;8.736;2022-10-19T13:21:00;13.90;82.00
54960;DHT22;40860;51.710;8.736;2022-10-19T13:25:25;13.70;81.80
54960;DHT22;40860;51.710;8.736;2022-10-19T13:29:39;13.70;82.10
54960;DHT22;40860;51.710;8.736;2022-10-19T13:33:48;13.60;82.70
54960;DHT22;40860;51.710;8.736;2022-10-19T13:38:20;13.60;83.80
54960;DHT22;40860;51.710;8.736;2022-10-19T13:42:29;13.60;83.30
54960;DHT22;40860;51.710;8.736;2022-10-19T13:46:49;13.70;83.30
54960;DHT22;40860;51.710;8.736;2022-10-19T13:50:59;13.70;82.10
54960;DHT22;40860;51.710;8.736;2022-10-19T13:55:32;13.70;82.30
54960;DHT22;40860;51.710;8.736;2022-10-19T14:00:01;13.60;82.80
54960;DHT22;40860;51.710;8.736;2022-10-19T14:04:29;13.70;83.20
54960;DHT22;40860;51.710;8.736;2022-10-19T14:09:03;13.70;82.80
54960;DHT22;40860;51.710;8.736;2022-10-19T14:13:15;13.70;82.30
54960;DHT22;40860;51.710;8.736;2022-10-19T14:17:20;13.50;81.50
54960;DHT22;40860;51.710;8.736;2022-10-19T14:21:29;13.40;82.60
54960;DHT22;40860;51.710;8.736;2022-10-19T14:25:32;13.50;82.20
54960;DHT22;40860;51.710;8.736;2022-10-19T14:29:43;13.40;81.90
54960;DHT22;40860;51.710;8.736;2022-10-19T14:33:49;13.40;82.40
54960;DHT22;40860;51.710;8.736;2022-10-19T14:37:53;13.40;82.60
54960;DHT22;40860;51.710;8.736;2022-10-19T14:41:56;13.40;82.80
54960;DHT22;40860;51.710;8.736;2022-10-19T14:46:14;13.30;82.40
54960;DHT22;40860;51.710;8.736;2022-10-19T14:50:17;13.30;82.70
54960;DHT22;40860;51.710;8.736;2022-10-19T14:54:26;13.20;82.50
54960;DHT22;40860;51.710;8.736;2022-10-19T14:58:35;13.10;83.60
54960;DHT22;40860;51.710;8.736;2022-10-19T15:02:44;13.10;83.20
54960;DHT22;40860;51.710;8.736;2022-10-19T15:06:48;13.00;83.50
54960;DHT22;40860;51.710;8.736;2022-10-19T15:10:52;13.00;84.20
54960;DHT22;40860;51.710;8.736;2022-10-19T15:14:55;13.00;84.30
54960;DHT22;40860;51.710;8.736;2022-10-19T15:19:03;12.90;84.60
54960;DHT22;40860;51.710;8.736;2022-10-19T15:23:30;12.80;85.70
54960;DHT22;40860;51.710;8.736;2022-10-19T15:27:36;12.80;85.60
54960;DHT22;40860;51.710;8.736;2022-10-19T15:31:39;12.70;85.70
54960;DHT22;40860;51.710;8.736;2022-10-19T15:35:45;12.60;86.40
54960;DHT22;40860;51.710;8.736;2022-10-19T15:39:50;12.60;86.70
54960;DHT22;40860;51.710;8.736;2022-10-19T15:43:55;12.50;87.30
54960;DHT22;40860;51.710;8.736;2022-10-19T15:48:26;12.40;87.50
54960;DHT22;40860;51.710;8.736;2022-10-19T15:52:31;12.30;88.00
54960;DHT22;40860;51.710;8.736;2022-10-19T15:56:36;12.20;88.20
54960;DHT22;40860;51.710;8.736;2022-10-19T16:00:40;12.10;88.80
54960;DHT22;40860;51.710;8.736;2022-10-19T16:04:43;12.00;89.40
54960;DHT22;40860;51.710;8.736;2022-10-19T16:08:47;11.90;90.30
54960;DHT22;40860;51.710;8.736;2022-10-19T16:12:52;11.80;90.40
54960;DHT22;40860;51.710;8.736;2022-10-19T16:16:55;11.70;91.20
54960;DHT22;40860;51.710;8.736;2022-10-19T16:21:01;11.60;91.30
54960;DHT22;40860;51.710;8.736;2022-10-19T16:25:06;11.50;91.40
54960;DHT22;40860;51.710;8.736;2022-10-19T16:29:09;11.40;91.70
54960;DHT22;40860;51.710;8.736;2022-10-19T16:33:12;11.40;92.00
54960;DHT22;40860;51.710;8.736;2022-10-19T16:43:04;11.10;92.50
54960;DHT22;40860;51.710;8.736;2022-10-19T16:47:07;11.00;92.70
54960;DHT22;40860;51.710;8.736;2022-10-19T16:51:23;10.90;93.00
54960;DHT22;40860;51.710;8.736;2022-10-19T16:55:27;10.90;93.20
54960;DHT22;40860;51.710;8.736;2022-10-19T16:59:31;10.80;93.40
54960;DHT22;40860;51.710;8.736;2022-10-19T17:03:34;10.70;93.40
54960;DHT22;40860;51.710;8.736;2022-10-19T17:07:37;10.70;93.50
54960;DHT22;40860;51.710;8.736;2022-10-19T17:11:40;10.50;93.80
54960;DHT22;40860;51.710;8.736;2022-10-19T17:15:44;10.50;94.00
54960;DHT22;40860;51.710;8.736;2022-10-19T17:19:48;10.50;94.00
54960;DHT22;40860;51.710;8.736;2022-10-19T17:23:51;10.40;94.20
54960;DHT22;40860;51.710;8.736;2022-10-19T17:27:54;10.30;94.30
54960;DHT22;40860;51.710;8.736;2022-10-19T17:31:58;10.30;94.50
54960;DHT22;40860;51.710;8.736;2022-10-19T17:36:03;10.20;94.50
54960;DHT22;40860;51.710;8.736;2022-10-19T17:40:08;10.10;94.80
54960;DHT22;40860;51.710;8.736;2022-10-19T17:44:11;10.00;94.90
54960;DHT22;40860;51.710;8.736;2022-10-19T17:48:19;10.00;95.20
54960;DHT22;40860;51.710;8.736;2022-10-19T17:52:21;9.90;95.40
54960;DHT22;40860;51.710;8.736;2022-10-19T17:56:25;9.90;95.50
54960;DHT22;40860;51.710;8.736;2022-10-19T18:00:28;9.90;96.00
54960;DHT22;40860;51.710;8.736;2022-10-19T18:04:32;9.90;95.90
54960;DHT22;40860;51.710;8.736;2022-10-19T18:08:38;9.90;96.00
54960;DHT22;40860;51.710;8.736;2022-10-19T18:12:42;9.80;95.80
54960;DHT22;40860;51.710;8.736;2022-10-19T18:16:46;9.80;96.10
54960;DHT22;40860;51.710;8.736;2022-10-19T18:20:51;9.80;96.00
54960;DHT22;40860;51.710;8.736;2022-10-19T18:24:53;9.80;96.00
54960;DHT22;40860;51.710;8.736;2022-10-19T18:29:00;9.80;96.10
54960;DHT22;40860;51.710;8.736;2022-10-19T18:33:04;9.90;95.90
54960;DHT22;40860;51.710;8.736;2022-10-19T18:37:08;9.90;95.60
54960;DHT22;40860;51.710;8.736;2022-10-19T18:41:11;9.90;95.30
54960;DHT22;40860;51.710;8.736;2022-10-19T18:45:19;10.00;95.10
54960;DHT22;40860;51.710;8.736;2022-10-19T18:49:22;10.00;94.90
54960;DHT22;40860;51.710;8.736;2022-10-19T18:53:27;10.00;94.80
54960;DHT22;40860;51.710;8.736;2022-10-19T18:57:32;10.00;94.70
54960;DHT22;40860;51.710;8.736;2022-10-19T19:01:35;9.90;94.50
54960;DHT22;40860;51.710;8.736;2022-10-19T19:05:40;9.90;94.40
54960;DHT22;40860;51.710;8.736;2022-10-19T19:09:44;9.90;94.40
54960;DHT22;40860;51.710;8.736;2022-10-19T19:13:49;9.80;94.70
54960;DHT22;40860;51.710;8.736;2022-10-19T19:17:53;9.80;94.50
54960;DHT22;40860;51.710;8.736;2022-10-19T19:21:56;9.70;94.60
54960;DHT22;40860;51.710;8.736;2022-10-19T19:26:01;9.60;94.70
54960;DHT22;40860;51.710;8.736;2022-10-19T19:30:05;9.60;94.70
54960;DHT22;40860;51.710;8.736;2022-10-19T19:34:08;9.60;94.80
54960;DHT22;40860;51.710;8.736;2022-10-19T19:38:12;9.50;94.90
54960;DHT22;40860;51.710;8.736;2022-10-19T19:42:17;9.50;94.90
54960;DHT22;40860;51.710;8.736;2022-10-19T19:46:20;9.40;95.00
54960;DHT22;40860;51.710;8.736;2022-10-19T19:50:26;9.30;95.00
54960;DHT22;40860;51.710;8.736;2022-10-19T19:54:29;9.30;95.10
54960;DHT22;40860;51.710;8.736;2022-10-19T19:58:33;9.30;95.10
54960;DHT22;40860;51.710;8.736;2022-10-19T20:02:37;9.20;95.20
54960;DHT22;40860;51.710;8.736;2022-10-19T20:06:40;9.20;95.20
54960;DHT22;40860;51.710;8.736;2022-10-19T20:10:45;9.10;95.30
54960;DHT22;40860;51.710;8.736;2022-10-19T20:14:49;9.10;95.40
54960;DHT22;40860;51.710;8.736;2022-10-19T20:18:56;9.10;95.50
54960;DHT22;40860;51.710;8.736;2022-10-19T20:23:00;9.00;95.50
54960;DHT22;40860;51.710;8.736;2022-10-19T20:27:03;9.00;95.50
54960;DHT22;40860;51.710;8.736;2022-10-19T20:31:08;9.00;95.40
54960;DHT22;40860;51.710;8.736;2022-10-19T20:35:11;9.00;95.40
54960;DHT22;40860;51.710;8.736;2022-10-19T20:39:14;8.90;95.40
54960;DHT22;40860;51.710;8.736;2022-10-19T20:43:17;8.90;95.40
54960;DHT22;40860;51.710;8.736;2022-10-19T20:47:21;8.90;95.40
54960;DHT22;40860;51.710;8.736;2022-10-19T20:51:25;8.90;95.40
54960;DHT22;40860;51.710;8.736;2022-10-19T20:55:32;8.90;95.30
54960;DHT22;40860;51.710;8.736;2022-10-19T20:59:35;8.90;95.30
54960;DHT22;40860;51.710;8.736;2022-10-19T21:03:44;8.90;95.40
54960;DHT22;40860;51.710;8.736;2022-10-19T21:07:47;8.80;95.50
54960;DHT22;40860;51.710;8.736;2022-10-19T21:11:50;8.80;95.60
54960;DHT22;40860;51.710;8.736;2022-10-19T21:15:53;8.80;95.60
54960;DHT22;40860;51.710;8.736;2022-10-19T21:19:58;8.80;95.60
54960;DHT22;40860;51.710;8.736;2022-10-19T21:24:03;8.80;95.60
54960;DHT22;40860;51.710;8.736;2022-10-19T21:28:06;8.70;95.70
54960;DHT22;40860;51.710;8.736;2022-10-19T21:32:09;8.70;95.70
54960;DHT22;40860;51.710;8.736;2022-10-19T21:36:14;8.70;95.70
54960;DHT22;40860;51.710;8.736;2022-10-19T21:40:17;8.70;95.90
54960;DHT22;40860;51.710;8.736;2022-10-19T21:44:20;8.60;95.90
54960;DHT22;40860;51.710;8.736;2022-10-19T21:48:23;8.60;96.00
54960;DHT22;40860;51.710;8.736;2022-10-19T21:52:28;8.40;96.10
54960;DHT22;40860;51.710;8.736;2022-10-19T21:56:31;8.40;96.20
54960;DHT22;40860;51.710;8.736;2022-10-19T22:00:34;8.30;96.50
54960;DHT22;40860;51.710;8.736;2022-10-19T22:04:37;8.40;96.50
54960;DHT22;40860;51.710;8.736;2022-10-19T22:08:45;8.30;96.50
54960;DHT22;40860;51.710;8.736;2022-10-19T22:12:48;8.30;96.70
54960;DHT22;40860;51.710;8.736;2022-10-19T22:16:51;8.20;96.80
54960;DHT22;40860;51.710;8.736;2022-10-19T22:20:54;8.30;96.80
54960;DHT22;40860;51.710;8.736;2022-10-19T22:24:58;8.40;96.70
54960;DHT22;40860;51.710;8.736;2022-10-19T22:29:02;8.40;96.60
54960;DHT22;40860;51.710;8.736;2022-10-19T22:33:05;8.40;96.60
54960;DHT22;40860;51.710;8.736;2022-10-19T22:37:09;8.50;96.40
54960;DHT22;40860;51.710;8.736;2022-10-19T22:41:13;8.50;96.30
54960;DHT22;40860;51.710;8.736;2022-10-19T22:45:16;8.50;96.30
54960;DHT22;40860;51.710;8.736;2022-10-19T22:49:19;8.50;96.40
54960;DHT22;40860;51.710;8.736;2022-10-19T22:53:23;8.40;96.50
54960;DHT22;40860;51.710;8.736;2022-10-19T22:57:27;8.40;96.40
54960;DHT22;40860;51.710;8.736;2022-10-19T23:01:30;8.40;96.40
54960;DHT22;40860;51.710;8.736;2022-10-19T23:05:34;8.30;96.50
54960;DHT22;40860;51.710;8.736;2022-10-19T23:09:37;8.30;96.60
54960;DHT22;40860;51.710;8.736;2022-10-19T23:13:42;8.30;96.50
54960;DHT22;40860;51.710;8.736;2022-10-19T23:17:45;8.40;96.50
54960;DHT22;40860;51.710;8.736;2022-10-19T23:21:47;8.40;96.50
54960;DHT22;40860;51.710;8.736;2022-10-19T23:25:58;8.30;96.40
54960;DHT22;40860;51.710;8.736;2022-10-19T23:30:04;8.30;96.40
54960;DHT22;40860;51.710;8.736;2022-10-19T23:34:06;8.30;96.30
54960;DHT22;40860;51.710;8.736;2022-10-19T23:38:09;8.30;96.40
54960;DHT22;40860;51.710;8.736;2022-10-19T23:42:12;8.30;96.40
54960;DHT22;40860;51.710;8.736;2022-10-19T23:46:16;8.30;96.40
54960;DHT22;40860;51.710;8.736;2022-10-19T23:50:19;8.30;96.30
54960;DHT22;40860;51.710;8.736;2022-10-19T23:54:22;8.20;96.40
54960;DHT22;40860;51.710;8.736;2022-10-19T23:58:25;8.30;96.40
